Time;durP1;ratioP1;P1;durP2;ratioP2;P2;SDS_P1;SDS_P2;PMS_P1;PMS_P2;Temp;Humidity;BMP_temperature;BMP_pressure;BME280_temperature;BME280_humidity;BME280_pressure;Samples;Min_cycle;Max_cycle;Signal;HPM_P1;HPM_P2
2024/01/19 00:01:31;;;;;;;5.77;5.20;;;0.30;99.90;;;;;;5019868;28;20490;-60
2024/01/19 00:03:59;;;;;;;5.97;5.40;;;0.30;99.90;;;;;;5017749;28;20540;-60
2024/01/19 00:06:28;;;;;;;6.40;5.80;;;0.30;99.90;;;;;;5018078;28;20533;-60
2024/01/19 00:08:57;;;;;;;6.10;5.37;;;0.30;99.90;;;;;;5017970;28;20475;-60
2024/01/19 00:11:25;;;;;;;6.27;5.70;;;0.30;99.90;;;;;;5020719;28;20600;-60
2024/01/19 00:13:53;;;;;;;6.30;5.67;;;0.30;99.90;;;;;;5019456;28;20494;-60
2024/01/19 00:16:23;;;;;;;6.23;5.03;;;0.30;99.90;;;;;;5024035;28;20599;-60
2024/01/19 00:18:51;;;;;;;6.90;4.67;;;0.30;99.90;;;;;;5018961;28;20464;-60
2024/01/19 00:21:18;;;;;;;5.63;4.70;;;0.40;99.90;;;;;;5015337;28;20590;-60
2024/01/19 00:23:46;;;;;;;5.60;4.40;;;0.30;99.90;;;;;;5021163;28;20475;-60
2024/01/19 00:26:15;;;;;;;5.30;4.80;;;0.30;99.90;;;;;;5016322;28;20486;-60
2024/01/19 00:28:43;;;;;;;6.90;4.30;;;0.40;99.90;;;;;;5023150;28;20464;-60
2024/01/19 00:31:11;;;;;;;5.10;4.47;;;0.30;99.90;;;;;;5019061;28;20553;-60
2024/01/19 00:33:41;;;;;;;5.23;4.80;;;0.30;99.90;;;;;;5021324;28;21162;-60
2024/01/19 00:36:09;;;;;;;7.03;4.53;;;0.30;99.90;;;;;;5020560;28;20467;-60
2024/01/19 00:38:37;;;;;;;5.00;4.50;;;0.30;99.90;;;;;;5017137;28;20502;-60
2024/01/19 00:41:05;;;;;;;4.03;3.73;;;0.30;99.90;;;;;;5016978;28;20515;-60
2024/01/19 00:43:33;;;;;;;5.00;4.50;;;0.30;99.90;;;;;;5022196;28;20479;-60
2024/01/19 00:46:03;;;;;;;4.07;3.60;;;0.30;99.90;;;;;;5019671;28;20914;-61
2024/01/19 00:48:31;;;;;;;3.70;3.40;;;0.30;99.90;;;;;;5022488;28;20463;-60
2024/01/19 00:51:00;;;;;;;5.90;4.90;;;0.30;99.90;;;;;;5020078;28;20954;-60
2024/01/19 00:53:28;;;;;;;5.53;4.13;;;0.30;99.90;;;;;;5023141;28;20558;-60
2024/01/19 00:55:57;;;;;;;4.90;4.37;;;0.30;99.90;;;;;;5023200;28;20477;-60
2024/01/19 00:58:24;;;;;;;5.40;4.00;;;0.30;99.90;;;;;;5023458;28;20495;-60
2024/01/19 01:00:52;;;;;;;3.90;3.60;;;0.30;99.90;;;;;;5022087;28;20582;-62
2024/01/19 01:03:24;;;;;;;4.67;3.63;;;0.20;99.90;;;;;;5024759;28;20471;-61
2024/01/19 01:05:56;;;;;;;4.77;3.60;;;0.20;99.90;;;;;;5020940;28;20471;-60
2024/01/19 01:08:27;;;;;;;3.77;3.03;;;0.20;99.90;;;;;;5020281;28;20989;-60
2024/01/19 01:10:55;;;;;;;5.23;3.33;;;0.20;99.90;;;;;;5022572;28;20681;-60
2024/01/19 01:13:23;;;;;;;3.20;2.90;;;0.20;99.90;;;;;;5020170;28;20561;-60
2024/01/19 01:15:51;;;;;;;3.70;3.40;;;0.20;99.90;;;;;;5021541;28;20475;-61
2024/01/19 01:18:21;;;;;;;3.00;2.70;;;0.30;99.90;;;;;;5019980;28;21060;-60
2024/01/19 01:20:51;;;;;;;4.20;2.83;;;0.30;99.90;;;;;;5022386;28;20490;-60
2024/01/19 01:23:19;;;;;;;3.57;3.20;;;0.30;99.90;;;;;;5020691;28;20513;-60
2024/01/19 01:25:49;;;;;;;4.57;3.00;;;0.30;99.90;;;;;;5022211;28;20564;-60
2024/01/19 01:28:17;;;;;;;3.10;2.90;;;0.30;99.90;;;;;;5020611;28;20649;-60
2024/01/19 01:30:45;;;;;;;3.27;2.33;;;0.40;99.90;;;;;;5035536;28;20503;-59
2024/01/19 01:33:13;;;;;;;4.23;3.17;;;0.40;99.90;;;;;;5033966;28;20502;-60
2024/01/19 01:35:41;;;;;;;3.57;2.47;;;0.40;99.90;;;;;;5024527;28;20533;-60
2024/01/19 01:38:09;;;;;;;3.77;2.63;;;0.40;99.90;;;;;;5020902;28;20590;-60
2024/01/19 01:40:37;;;;;;;2.90;2.40;;;0.30;99.90;;;;;;5017215;28;21300;-60
2024/01/19 01:43:07;;;;;;;3.13;2.77;;;0.30;99.90;;;;;;5017892;28;20549;-60
2024/01/19 01:45:35;;;;;;;3.37;2.73;;;0.20;99.90;;;;;;5013082;28;20463;-60
2024/01/19 01:48:03;;;;;;;4.63;3.00;;;0.20;99.90;;;;;;5013920;28;21002;-60
2024/01/19 01:50:31;;;;;;;3.40;3.10;;;0.20;99.90;;;;;;5019876;28;20495;-60
2024/01/19 01:53:00;;;;;;;3.23;2.97;;;0.20;99.90;;;;;;5016655;28;20491;-60
2024/01/19 01:55:28;;;;;;;4.63;3.23;;;0.20;99.90;;;;;;5020125;28;20891;-60
2024/01/19 01:57:56;;;;;;;4.70;3.50;;;0.20;99.90;;;;;;5015960;28;20490;-60
2024/01/19 02:00:27;;;;;;;3.73;3.40;;;0.10;99.90;;;;;;5019147;28;20674;-60
2024/01/19 02:02:55;;;;;;;3.43;3.13;;;0.10;99.90;;;;;;5017727;28;20498;-60
2024/01/19 02:05:23;;;;;;;3.60;3.30;;;0.10;99.90;;;;;;5021466;28;20857;-60
2024/01/19 02:07:51;;;;;;;3.57;3.10;;;0.10;99.90;;;;;;5016436;28;20470;-60
2024/01/19 02:10:19;;;;;;;4.20;3.20;;;0.10;99.90;;;;;;5015930;28;20487;-61
2024/01/19 02:12:48;;;;;;;4.17;3.33;;;0.10;99.90;;;;;;5012564;28;20577;-60
2024/01/19 02:15:20;;;;;;;3.13;2.90;;;0.00;99.90;;;;;;5019045;28;20563;-60
2024/01/19 02:17:50;;;;;;;3.33;3.03;;;0.10;99.90;;;;;;5023574;28;20579;-60
2024/01/19 02:20:18;;;;;;;4.73;3.30;;;0.00;99.90;;;;;;5016768;28;20979;-62
2024/01/19 02:22:48;;;;;;;2.97;2.67;;;0.00;99.90;;;;;;5014554;28;20557;-60
2024/01/19 02:25:17;;;;;;;5.00;2.60;;;0.00;99.90;;;;;;5019339;28;20499;-60
2024/01/19 02:27:46;;;;;;;3.77;2.90;;;0.00;99.90;;;;;;5017756;28;20463;-60
2024/01/19 02:30:14;;;;;;;3.00;2.57;;;0.00;99.90;;;;;;5016092;28;20526;-60
2024/01/19 02:32:42;;;;;;;2.87;2.20;;;0.00;99.90;;;;;;5019718;28;20573;-60
2024/01/19 02:35:10;;;;;;;4.10;2.87;;;-0.10;99.90;;;;;;5016637;28;20475;-60
2024/01/19 02:37:39;;;;;;;4.07;2.37;;;-0.10;99.90;;;;;;5011305;28;20463;-60
2024/01/19 02:40:08;;;;;;;2.70;2.10;;;-0.10;99.90;;;;;;5017540;28;20515;-60
2024/01/19 02:42:38;;;;;;;3.73;3.30;;;-0.10;99.90;;;;;;5017873;28;20507;-60
2024/01/19 02:45:07;;;;;;;2.60;2.40;;;-0.10;99.90;;;;;;5035171;28;21095;-60
2024/01/19 02:47:35;;;;;;;4.07;2.30;;;-0.10;99.90;;;;;;5031430;28;20482;-60
2024/01/19 02:50:03;;;;;;;2.57;2.17;;;0.00;99.90;;;;;;5025037;28;20467;-60
2024/01/19 02:52:33;;;;;;;2.60;2.40;;;-0.10;99.90;;;;;;5020008;28;20490;-60
2024/01/19 02:55:02;;;;;;;4.27;1.97;;;-0.10;99.90;;;;;;5017244;28;20591;-60
2024/01/19 02:57:30;;;;;;;4.03;2.10;;;-0.10;99.90;;;;;;5021261;28;20467;-60
2024/01/19 03:00:00;;;;;;;5.00;2.13;;;0.00;99.90;;;;;;5017151;28;20598;-60
2024/01/19 03:02:28;;;;;;;3.27;2.10;;;0.00;99.90;;;;;;5017702;28;20500;-60
2024/01/19 03:04:56;;;;;;;4.73;2.30;;;0.00;99.90;;;;;;5016254;28;20468;-60
2024/01/19 03:07:24;;;;;;;3.13;2.20;;;0.00;99.90;;;;;;5016083;28;20468;-60
2024/01/19 03:09:52;;;;;;;3.23;2.00;;;0.00;99.90;;;;;;5014005;28;20559;-60
2024/01/19 03:12:20;;;;;;;3.40;2.10;;;0.00;99.90;;;;;;5011928;28;20579;-60
2024/01/19 03:14:48;;;;;;;1.80;1.67;;;0.00;99.90;;;;;;5017918;28;20987;-60
2024/01/19 03:17:17;;;;;;;5.07;3.10;;;0.00;99.90;;;;;;5010578;28;20471;-60
2024/01/19 03:19:46;;;;;;;3.80;1.77;;;0.10;99.90;;;;;;5014376;28;20523;-60
2024/01/19 03:22:14;;;;;;;1.80;1.60;;;0.10;99.90;;;;;;5013014;28;20828;-60
2024/01/19 03:24:42;;;;;;;4.27;1.90;;;0.10;99.90;;;;;;5013960;28;20608;-60
2024/01/19 03:27:10;;;;;;;2.90;2.07;;;0.10;99.90;;;;;;5021551;28;20481;-60
2024/01/19 03:29:38;;;;;;;1.80;1.60;;;0.10;99.90;;;;;;5019947;28;20501;-60
2024/01/19 03:32:06;;;;;;;3.87;2.00;;;0.10;99.90;;;;;;5013282;28;21043;-60
2024/01/19 03:34:36;;;;;;;2.70;2.10;;;0.10;99.90;;;;;;5019991;28;20654;-60
2024/01/19 03:37:04;;;;;;;4.13;2.73;;;0.10;99.90;;;;;;5018973;28;20503;-60
2024/01/19 03:39:32;;;;;;;2.93;2.17;;;0.10;99.90;;;;;;5021717;28;20898;-60
2024/01/19 03:42:01;;;;;;;2.30;2.00;;;0.20;99.90;;;;;;5022173;28;20505;-60
2024/01/19 03:44:29;;;;;;;1.80;1.70;;;0.20;99.90;;;;;;5022345;28;20470;-60
2024/01/19 03:46:59;;;;;;;2.10;1.90;;;0.20;99.90;;;;;;5039181;28;20532;-59
2024/01/19 03:49:27;;;;;;;3.60;2.07;;;0.10;99.90;;;;;;5027984;28;20460;-60
2024/01/19 03:52:01;;;;;;;4.20;2.10;;;0.10;99.90;;;;;;5015963;28;20501;-61
2024/01/19 03:54:29;;;;;;;4.20;2.23;;;0.20;99.90;;;;;;5019548;28;20464;-60
2024/01/19 03:56:59;;;;;;;3.67;2.00;;;0.20;99.90;;;;;;5017047;28;20471;-60
2024/01/19 03:59:27;;;;;;;2.20;1.93;;;0.20;99.90;;;;;;5025600;28;20578;-60
2024/01/19 04:01:56;;;;;;;3.00;1.73;;;0.10;99.90;;;;;;5021716;28;20541;-60
2024/01/19 04:04:24;;;;;;;3.80;2.03;;;0.10;99.90;;;;;;5022591;28;20499;-60
2024/01/19 04:06:53;;;;;;;4.33;2.40;;;0.10;99.90;;;;;;5023080;28;20486;-60
2024/01/19 04:09:22;;;;;;;5.03;1.90;;;0.10;99.90;;;;;;5020348;28;20475;-60
2024/01/19 04:11:50;;;;;;;2.40;1.50;;;0.20;99.90;;;;;;5018969;28;20489;-60
2024/01/19 04:14:18;;;;;;;2.40;1.90;;;0.20;99.90;;;;;;5015491;28;20475;-60
2024/01/19 04:16:46;;;;;;;4.73;2.03;;;0.20;99.90;;;;;;5022203;28;21172;-60
2024/01/19 04:19:15;;;;;;;1.93;1.57;;;0.30;99.90;;;;;;5019183;28;20930;-60
2024/01/19 04:21:43;;;;;;;2.43;1.70;;;0.30;99.90;;;;;;5020601;28;20509;-60
2024/01/19 04:24:11;;;;;;;2.90;1.80;;;0.30;99.90;;;;;;5018934;28;20471;-60
2024/01/19 04:26:41;;;;;;;3.00;1.80;;;0.30;99.90;;;;;;5020599;28;20552;-60
2024/01/19 04:29:09;;;;;;;3.13;1.83;;;0.30;99.90;;;;;;5023435;28;20459;-60
2024/01/19 04:31:37;;;;;;;3.67;1.70;;;0.30;99.90;;;;;;5019467;28;20523;-60
2024/01/19 04:34:05;;;;;;;1.80;1.70;;;0.40;99.90;;;;;;5022779;28;20561;-60
2024/01/19 04:36:33;;;;;;;2.93;1.73;;;0.40;99.90;;;;;;5023953;28;20518;-60
2024/01/19 04:39:02;;;;;;;2.13;1.50;;;0.40;99.90;;;;;;5020015;28;20502;-60
2024/01/19 04:41:30;;;;;;;1.67;1.57;;;0.40;99.90;;;;;;5017839;28;20528;-59
2024/01/19 04:43:59;;;;;;;2.67;1.40;;;0.40;99.90;;;;;;5019478;28;20476;-65
2024/01/19 04:46:27;;;;;;;4.43;1.77;;;0.50;99.90;;;;;;5019624;28;20510;-61
2024/01/19 04:48:56;;;;;;;2.50;2.07;;;0.50;99.90;;;;;;5017297;28;20477;-60
2024/01/19 04:51:24;;;;;;;2.60;1.70;;;0.50;99.90;;;;;;5021087;28;20494;-60
2024/01/19 04:53:53;;;;;;;2.00;1.53;;;0.50;99.90;;;;;;5019606;28;20498;-60
2024/01/19 04:56:21;;;;;;;1.90;1.70;;;0.40;99.90;;;;;;5018966;28;20487;-60
2024/01/19 04:58:49;;;;;;;3.87;1.67;;;0.40;99.90;;;;;;5021006;28;20467;-60
2024/01/19 05:01:18;;;;;;;2.70;1.80;;;0.50;99.90;;;;;;5018714;28;20556;-60
2024/01/19 05:03:46;;;;;;;2.93;1.97;;;0.50;99.90;;;;;;5016293;28;20872;-60
2024/01/19 05:06:14;;;;;;;6.03;1.70;;;0.50;99.90;;;;;;5018152;28;20463;-60
2024/01/19 05:08:43;;;;;;;2.90;1.70;;;0.50;99.90;;;;;;5021724;28;20471;-60
2024/01/19 05:11:13;;;;;;;3.17;1.60;;;0.50;99.90;;;;;;5017433;28;20483;-60
2024/01/19 05:13:43;;;;;;;4.73;1.57;;;0.50;99.90;;;;;;5024934;28;20562;-60
2024/01/19 05:16:11;;;;;;;5.03;1.73;;;0.40;99.90;;;;;;5018705;28;20552;-60
2024/01/19 05:18:41;;;;;;;4.67;1.70;;;0.40;99.90;;;;;;5021372;28;20481;-60
2024/01/19 05:21:09;;;;;;;2.90;1.83;;;0.40;99.90;;;;;;5017684;28;20710;-60
2024/01/19 05:23:37;;;;;;;3.70;1.70;;;0.40;99.90;;;;;;5020303;28;20689;-60
2024/01/19 05:26:05;;;;;;;5.13;1.80;;;0.40;99.90;;;;;;5019514;28;20949;-60
2024/01/19 05:28:34;;;;;;;1.70;1.47;;;0.40;99.90;;;;;;5017659;28;20471;-64
2024/01/19 05:31:02;;;;;;;2.70;1.73;;;0.50;99.90;;;;;;5016776;28;20490;-60
2024/01/19 05:33:31;;;;;;;1.60;1.50;;;0.50;99.90;;;;;;5016896;28;20478;-60
2024/01/19 05:36:03;;;;;;;2.20;1.80;;;0.50;99.90;;;;;;5017746;28;20665;-60
2024/01/19 05:38:31;;;;;;;3.47;1.80;;;0.50;99.90;;;;;;5022097;28;21043;-60
2024/01/19 05:41:01;;;;;;;4.13;2.03;;;0.50;99.90;;;;;;5011045;28;20494;-60
2024/01/19 05:43:29;;;;;;;4.43;1.97;;;0.50;99.90;;;;;;5012723;28;20562;-60
2024/01/19 05:45:57;;;;;;;2.20;1.93;;;0.50;99.90;;;;;;5015914;28;20471;-61
2024/01/19 05:48:26;;;;;;;3.50;1.90;;;0.50;99.90;;;;;;5009774;28;20592;-60
2024/01/19 05:50:54;;;;;;;6.37;1.60;;;0.40;99.90;;;;;;5009016;28;20490;-61
2024/01/19 05:53:23;;;;;;;2.00;1.80;;;0.40;99.90;;;;;;5009173;28;20563;-60
2024/01/19 05:55:52;;;;;;;1.57;1.47;;;0.40;99.90;;;;;;5010645;28;20467;-60
2024/01/19 05:58:20;;;;;;;1.90;1.70;;;0.30;99.90;;;;;;5013077;28;20497;-60
2024/01/19 06:00:49;;;;;;;2.60;2.40;;;0.40;99.90;;;;;;5020941;28;20495;-60
2024/01/19 06:03:17;;;;;;;3.00;1.57;;;0.40;99.90;;;;;;5030205;28;20538;-60
2024/01/19 06:05:45;;;;;;;2.23;1.47;;;0.40;99.90;;;;;;5028437;28;20493;-60
2024/01/19 06:08:13;;;;;;;2.50;2.00;;;0.50;99.90;;;;;;5018795;28;20533;-61
2024/01/19 06:10:43;;;;;;;3.73;1.70;;;0.50;99.90;;;;;;5012478;28;20501;-60
2024/01/19 06:13:12;;;;;;;2.73;1.40;;;0.50;99.90;;;;;;5012213;28;20486;-62
2024/01/19 06:15:40;;;;;;;2.70;1.63;;;0.50;99.90;;;;;;5014841;28;20477;-60
2024/01/19 06:18:08;;;;;;;3.10;2.00;;;0.50;99.90;;;;;;5015223;28;20476;-60
2024/01/19 06:20:41;;;;;;;2.43;1.50;;;0.50;99.90;;;;;;5007791;28;20517;-60
2024/01/19 06:23:09;;;;;;;5.13;1.40;;;0.50;99.90;;;;;;5013091;28;20514;-60
2024/01/19 06:25:37;;;;;;;1.40;1.30;;;0.50;99.90;;;;;;5001183;28;20471;-60
2024/01/19 06:28:07;;;;;;;2.90;2.13;;;0.50;99.90;;;;;;5002084;28;20478;-59
2024/01/19 06:30:35;;;;;;;3.00;2.57;;;0.60;99.90;;;;;;5012575;28;20899;-60
2024/01/19 06:33:05;;;;;;;2.30;1.80;;;0.60;99.90;;;;;;5003543;28;20694;-60
2024/01/19 06:35:33;;;;;;;2.13;1.50;;;0.60;99.90;;;;;;5015697;28;20983;-60
2024/01/19 06:38:03;;;;;;;5.23;2.00;;;0.70;99.90;;;;;;5016570;28;20479;-60
2024/01/19 06:40:31;;;;;;;3.20;1.70;;;0.70;99.90;;;;;;5013143;28;20919;-60
2024/01/19 06:42:59;;;;;;;1.47;1.37;;;0.70;99.90;;;;;;5011338;28;20593;-60
2024/01/19 06:45:29;;;;;;;2.20;1.50;;;0.70;99.90;;;;;;4998766;28;20471;-60
2024/01/19 06:47:57;;;;;;;2.73;1.70;;;0.70;99.90;;;;;;5009111;28;20546;-60
2024/01/19 06:50:26;;;;;;;2.37;1.67;;;0.70;99.90;;;;;;5001717;28;21138;-60
2024/01/19 06:52:54;;;;;;;4.13;1.70;;;0.70;99.90;;;;;;4998321;28;20990;-60
2024/01/19 06:55:25;;;;;;;1.83;1.50;;;0.70;99.90;;;;;;5007934;28;20555;-60
2024/01/19 06:57:53;;;;;;;6.30;1.67;;;0.70;99.90;;;;;;5006409;28;23829;-59
2024/01/19 07:00:21;;;;;;;3.13;1.70;;;0.60;99.90;;;;;;4999909;28;20618;-60
2024/01/19 07:02:50;;;;;;;3.17;1.77;;;0.60;99.90;;;;;;5002118;28;20495;-60
2024/01/19 07:05:19;;;;;;;4.37;1.70;;;0.50;99.90;;;;;;5009421;28;20865;-60
2024/01/19 07:07:47;;;;;;;4.30;1.77;;;0.50;99.90;;;;;;5006398;28;21517;-60
2024/01/19 07:10:15;;;;;;;3.10;1.97;;;0.50;99.90;;;;;;5003601;28;20484;-60
2024/01/19 07:12:43;;;;;;;2.40;1.50;;;0.50;99.90;;;;;;5011615;28;20490;-60
2024/01/19 07:15:11;;;;;;;2.27;1.50;;;0.50;99.90;;;;;;5014652;28;20472;-60
2024/01/19 07:17:39;;;;;;;2.70;1.80;;;0.50;99.90;;;;;;5016372;28;20571;-60
2024/01/19 07:20:10;;;;;;;4.27;1.73;;;0.50;99.90;;;;;;5012935;28;21124;-60
2024/01/19 07:22:38;;;;;;;2.03;1.67;;;0.50;99.90;;;;;;5014818;28;20601;-60
2024/01/19 07:25:08;;;;;;;4.70;2.00;;;0.50;99.90;;;;;;5021182;28;20622;-62
2024/01/19 07:27:36;;;;;;;3.23;1.57;;;0.50;99.90;;;;;;5016181;28;20470;-60
2024/01/19 07:30:05;;;;;;;2.60;1.83;;;0.50;99.90;;;;;;5017290;28;20891;-60
2024/01/19 07:32:33;;;;;;;2.47;1.93;;;0.50;99.90;;;;;;5016364;28;20487;-60
2024/01/19 07:35:23;;;;;;;3.30;2.10;;;0.50;99.90;;;;;;5014881;28;20952;-60
2024/01/19 07:37:51;;;;;;;3.23;1.73;;;0.40;99.90;;;;;;5017007;28;20712;-60
2024/01/19 07:40:20;;;;;;;4.33;2.57;;;0.50;99.90;;;;;;5014465;28;21007;-60
2024/01/19 07:42:48;;;;;;;2.43;1.77;;;0.40;99.90;;;;;;5012561;28;20685;-60
2024/01/19 07:45:16;;;;;;;4.70;2.07;;;0.40;99.90;;;;;;5012735;28;21028;-60
2024/01/19 07:47:44;;;;;;;3.53;1.97;;;0.40;99.90;;;;;;5019537;28;20976;-60
2024/01/19 07:50:12;;;;;;;6.83;2.27;;;0.40;99.90;;;;;;5016971;28;20496;-60
2024/01/19 07:52:41;;;;;;;5.30;2.10;;;0.40;99.90;;;;;;5017753;28;20487;-60
2024/01/19 07:55:09;;;;;;;2.00;1.70;;;0.40;99.90;;;;;;5018334;28;20479;-60
2024/01/19 07:57:37;;;;;;;2.87;1.87;;;0.40;99.90;;;;;;5018244;28;20964;-60
2024/01/19 08:00:08;;;;;;;2.80;1.97;;;0.40;99.90;;;;;;5018589;28;20541;-60
2024/01/19 08:02:37;;;;;;;3.40;2.00;;;0.40;99.90;;;;;;5015550;28;21849;-60
2024/01/19 08:05:05;;;;;;;2.50;1.77;;;0.40;99.90;;;;;;5017924;28;20515;-63
2024/01/19 08:07:33;;;;;;;5.00;2.30;;;0.40;99.90;;;;;;5015521;28;21088;-60
2024/01/19 08:10:03;;;;;;;3.43;2.37;;;0.40;99.90;;;;;;5019505;28;21610;-60
2024/01/19 08:12:31;;;;;;;4.40;2.37;;;0.40;99.90;;;;;;5021451;28;20491;-60
2024/01/19 08:14:59;;;;;;;5.13;2.40;;;0.40;99.90;;;;;;5007730;28;21075;-63
2024/01/19 08:17:27;;;;;;;3.10;2.00;;;0.40;99.90;;;;;;5025777;28;20449;-60
2024/01/19 08:19:55;;;;;;;3.13;2.53;;;0.40;99.90;;;;;;5024477;28;20475;-60
2024/01/19 08:22:23;;;;;;;5.37;3.03;;;0.50;99.90;;;;;;5013457;28;20519;-59
2024/01/19 08:24:51;;;;;;;5.70;2.60;;;0.50;99.90;;;;;;5015421;28;20475;-60
2024/01/19 08:27:21;;;;;;;4.60;2.47;;;0.50;99.90;;;;;;5012836;28;20471;-60
2024/01/19 08:29:49;;;;;;;3.90;3.10;;;0.50;99.90;;;;;;5011296;28;20488;-60
2024/01/19 08:32:17;;;;;;;4.00;2.50;;;0.60;99.90;;;;;;5014071;28;20495;-60
2024/01/19 08:34:45;;;;;;;5.53;3.27;;;0.60;99.90;;;;;;5010093;28;20467;-60
2024/01/19 08:37:13;;;;;;;6.70;2.80;;;0.60;99.90;;;;;;5013868;28;20562;-60
2024/01/19 08:39:41;;;;;;;7.00;2.77;;;0.60;99.90;;;;;;5006352;28;20538;-59
2024/01/19 08:42:09;;;;;;;5.07;2.70;;;0.60;99.90;;;;;;5015410;28;20924;-60
2024/01/19 08:44:39;;;;;;;3.23;2.73;;;0.70;99.90;;;;;;5014984;28;20467;-61
2024/01/19 08:47:07;;;;;;;5.93;3.10;;;0.70;99.90;;;;;;5016324;28;20479;-60
2024/01/19 08:49:35;;;;;;;3.37;2.57;;;0.70;99.90;;;;;;5013251;28;20471;-60
2024/01/19 08:52:04;;;;;;;8.30;3.10;;;0.70;99.90;;;;;;5012025;28;20487;-60
2024/01/19 08:54:32;;;;;;;5.90;3.40;;;0.70;99.90;;;;;;5020128;28;21043;-60
2024/01/19 08:57:00;;;;;;;4.27;2.67;;;0.70;99.90;;;;;;5014372;28;20475;-60
2024/01/19 08:59:33;;;;;;;7.83;3.20;;;0.70;99.90;;;;;;5011580;28;20479;-60
2024/01/19 09:02:03;;;;;;;6.10;2.53;;;0.70;99.90;;;;;;5011860;28;20483;-61
2024/01/19 09:04:31;;;;;;;3.40;2.10;;;0.70;99.90;;;;;;5010613;28;20602;-60
2024/01/19 09:06:59;;;;;;;5.30;2.90;;;0.80;99.90;;;;;;5017557;28;21204;-60
2024/01/19 09:09:27;;;;;;;3.83;2.20;;;0.80;99.90;;;;;;5017681;28;21071;-60
2024/01/19 09:11:55;;;;;;;4.00;2.00;;;0.80;99.90;;;;;;5017605;28;20594;-60
2024/01/19 09:14:26;;;;;;;3.80;2.10;;;0.80;99.90;;;;;;5007256;28;20483;-60
2024/01/19 09:16:54;;;;;;;2.73;2.10;;;0.80;99.90;;;;;;5009874;28;21046;-60
2024/01/19 09:19:23;;;;;;;2.70;2.00;;;0.90;99.90;;;;;;5015107;28;20506;-60
2024/01/19 09:21:51;;;;;;;4.80;2.23;;;0.90;99.90;;;;;;5006440;28;20535;-60
2024/01/19 09:24:19;;;;;;;2.90;1.80;;;1.00;99.90;;;;;;5014145;28;20847;-60
2024/01/19 09:26:47;;;;;;;3.53;1.90;;;1.10;99.90;;;;;;5004415;28;20471;-60
2024/01/19 09:29:16;;;;;;;4.80;1.93;;;1.10;99.90;;;;;;5015563;28;20901;-60
2024/01/19 09:31:44;;;;;;;2.70;1.70;;;1.10;99.90;;;;;;5014789;28;20497;-60
2024/01/19 09:34:12;;;;;;;3.33;1.70;;;1.20;99.90;;;;;;5010499;28;20491;-60
2024/01/19 09:36:42;;;;;;;5.47;2.60;;;1.20;99.90;;;;;;5008703;28;20548;-60
2024/01/19 09:39:10;;;;;;;4.90;1.93;;;1.20;99.90;;;;;;5007296;28;20524;-60
2024/01/19 09:41:39;;;;;;;4.13;1.90;;;1.30;99.90;;;;;;5012788;28;20487;-61
2024/01/19 09:44:09;;;;;;;4.70;1.70;;;1.30;99.90;;;;;;5012498;28;21585;-60
2024/01/19 09:46:46;;;;;;;4.00;1.83;;;1.30;99.90;;;;;;5015143;28;20971;-61
2024/01/19 09:49:27;;;;;;;5.20;2.40;;;1.30;99.90;;;;;;5009384;28;21154;-60
2024/01/19 09:52:04;;;;;;;3.20;1.70;;;1.30;99.90;;;;;;5011720;28;20984;-61
2024/01/19 09:54:34;;;;;;;4.40;2.23;;;1.30;99.90;;;;;;5013208;28;20546;-60
2024/01/19 09:57:03;;;;;;;6.37;2.50;;;1.30;99.90;;;;;;5012390;28;20486;-60
2024/01/19 09:59:32;;;;;;;2.90;2.40;;;1.40;99.90;;;;;;5012046;28;20511;-60
2024/01/19 10:02:01;;;;;;;2.93;2.63;;;1.40;99.90;;;;;;5016432;28;20491;-60
2024/01/19 10:04:30;;;;;;;4.07;2.57;;;1.50;99.90;;;;;;5015393;28;21230;-60
2024/01/19 10:07:01;;;;;;;4.13;2.60;;;1.60;99.90;;;;;;5013197;28;20839;-60
2024/01/19 10:09:31;;;;;;;4.33;2.10;;;1.60;99.90;;;;;;5016333;28;20825;-60
2024/01/19 10:11:59;;;;;;;4.23;2.47;;;1.60;99.90;;;;;;5014001;28;20609;-60
2024/01/19 10:14:28;;;;;;;4.80;2.63;;;1.60;99.90;;;;;;5006574;28;21052;-61
2024/01/19 10:16:56;;;;;;;7.80;2.13;;;1.70;99.90;;;;;;5012951;28;21109;-60
2024/01/19 10:19:25;;;;;;;8.40;2.37;;;1.70;99.90;;;;;;5013296;28;20481;-60
2024/01/19 10:21:53;;;;;;;5.27;2.10;;;1.70;99.90;;;;;;5009915;28;20496;-60
2024/01/19 10:24:23;;;;;;;2.73;1.87;;;1.70;99.90;;;;;;5015788;28;20498;-60
2024/01/19 10:26:53;;;;;;;6.83;2.87;;;1.70;99.90;;;;;;5013756;28;20988;-60
2024/01/19 10:29:22;;;;;;;7.90;3.30;;;1.70;99.90;;;;;;5015744;28;20525;-60
2024/01/19 10:31:52;;;;;;;4.23;2.30;;;1.70;99.90;;;;;;5026446;28;20511;-60
2024/01/19 10:34:22;;;;;;;4.13;2.20;;;1.80;99.90;;;;;;5038801;28;20518;-60
2024/01/19 10:36:51;;;;;;;3.60;2.00;;;1.80;99.90;;;;;;5014498;28;20468;-61
2024/01/19 10:39:20;;;;;;;4.70;2.10;;;1.90;99.90;;;;;;5017685;28;20493;-61
2024/01/19 10:41:52;;;;;;;3.20;1.77;;;1.90;99.90;;;;;;5011645;28;20588;-61
2024/01/19 10:44:22;;;;;;;4.90;1.80;;;2.00;99.90;;;;;;5014381;28;20499;-61
2024/01/19 10:46:50;;;;;;;5.73;2.00;;;2.20;99.90;;;;;;5013954;28;20960;-61
2024/01/19 10:49:19;;;;;;;4.77;2.00;;;2.20;99.90;;;;;;5012909;28;20562;-60
2024/01/19 10:51:48;;;;;;;4.60;2.03;;;2.30;99.90;;;;;;5015693;28;20538;-63
2024/01/19 10:54:24;;;;;;;6.37;2.30;;;2.30;99.90;;;;;;5016197;28;20478;-61
2024/01/19 10:57:03;;;;;;;4.83;1.70;;;2.30;99.90;;;;;;5013631;28;20489;-61
2024/01/19 10:59:31;;;;;;;4.30;2.23;;;2.40;99.90;;;;;;5008629;28;20467;-61
2024/01/19 11:02:00;;;;;;;4.77;2.20;;;2.40;99.90;;;;;;5008575;28;20503;-61
2024/01/19 11:04:29;;;;;;;8.40;2.53;;;2.50;99.90;;;;;;5013759;28;21227;-61
2024/01/19 11:06:57;;;;;;;1.80;1.70;;;2.60;99.90;;;;;;5016017;28;20495;-61
2024/01/19 11:09:25;;;;;;;3.27;2.07;;;2.70;99.90;;;;;;5008510;28;20992;-62
2024/01/19 11:11:57;;;;;;;3.60;2.03;;;2.80;99.90;;;;;;5006320;28;21083;-61
2024/01/19 11:14:27;;;;;;;5.73;2.20;;;2.80;99.90;;;;;;5012391;28;20815;-61
2024/01/19 11:16:57;;;;;;;4.13;1.90;;;2.70;99.90;;;;;;5009350;28;20958;-61
2024/01/19 11:19:25;;;;;;;4.50;2.10;;;2.60;99.90;;;;;;5014167;28;20969;-61
2024/01/19 11:21:54;;;;;;;7.60;2.13;;;2.50;99.90;;;;;;5014333;28;20780;-60
2024/01/19 11:24:24;;;;;;;5.17;1.73;;;2.50;99.90;;;;;;5017538;28;20553;-61
2024/01/19 11:27:07;;;;;;;3.13;2.07;;;2.50;99.90;;;;;;5017511;28;20502;-61
2024/01/19 11:29:39;;;;;;;4.57;2.03;;;2.50;99.90;;;;;;5011831;28;20499;-61
2024/01/19 11:32:09;;;;;;;4.97;1.70;;;2.40;99.90;;;;;;5007974;28;20527;-61
2024/01/19 11:34:44;;;;;;;3.63;1.70;;;2.30;99.90;;;;;;5015596;28;20646;-61
2024/01/19 11:37:40;;;;;;;2.93;2.10;;;2.30;99.90;;;;;;5010663;28;20475;-61
2024/01/19 11:40:08;;;;;;;3.87;2.90;;;2.30;99.90;;;;;;5016752;28;20893;-61
2024/01/19 11:42:47;;;;;;;2.50;1.70;;;2.20;99.90;;;;;;5012445;28;20576;-60
2024/01/19 11:45:39;;;;;;;3.20;1.60;;;2.20;99.90;;;;;;5010837;28;20590;-61
2024/01/19 11:48:08;;;;;;;4.97;2.77;;;2.20;99.90;;;;;;5014104;28;20471;-61
2024/01/19 11:50:44;;;;;;;2.90;2.10;;;2.10;99.90;;;;;;5015892;28;20490;-60
2024/01/19 11:53:14;;;;;;;4.73;2.37;;;2.10;99.90;;;;;;5016649;28;20511;-60
2024/01/19 11:55:45;;;;;;;4.47;4.07;;;2.10;99.90;;;;;;5012758;28;20470;-61
2024/01/19 11:58:31;;;;;;;5.47;3.27;;;2.10;99.90;;;;;;5018952;28;20467;-60
2024/01/19 12:01:00;;;;;;;8.10;3.67;;;2.00;99.90;;;;;;5015558;28;20502;-60
2024/01/19 12:03:29;;;;;;;9.07;3.70;;;2.10;99.90;;;;;;5015703;28;21035;-60
2024/01/19 12:06:00;;;;;;;6.30;3.87;;;2.10;99.90;;;;;;5018835;28;20471;-60
2024/01/19 12:08:29;;;;;;;4.10;3.43;;;2.00;99.90;;;;;;5008527;28;20495;-61
2024/01/19 12:11:11;;;;;;;3.93;3.27;;;2.00;99.90;;;;;;5017853;28;20538;-61
2024/01/19 12:13:42;;;;;;;4.47;3.73;;;2.00;99.90;;;;;;5010842;28;20506;-60
2024/01/19 12:16:22;;;;;;;5.03;3.60;;;2.00;99.90;;;;;;5007543;28;20482;-61
2024/01/19 12:18:55;;;;;;;4.43;3.53;;;2.00;99.90;;;;;;5015432;28;20503;-61
2024/01/19 12:21:24;;;;;;;3.60;3.30;;;2.00;99.90;;;;;;5013843;28;20505;-61
2024/01/19 12:23:56;;;;;;;3.90;3.53;;;2.00;99.90;;;;;;5017406;28;20921;-61
2024/01/19 12:26:25;;;;;;;5.87;3.60;;;2.00;99.90;;;;;;5006115;28;20476;-60
2024/01/19 12:28:55;;;;;;;4.83;3.67;;;2.00;99.90;;;;;;5008922;28;20471;-61
2024/01/19 12:31:24;;;;;;;4.20;3.07;;;2.00;99.90;;;;;;5011133;28;20574;-61
2024/01/19 12:33:53;;;;;;;5.00;3.53;;;2.00;99.90;;;;;;5009875;28;20845;-61
2024/01/19 12:36:24;;;;;;;4.87;2.60;;;2.10;99.90;;;;;;5012238;28;20468;-61
2024/01/19 12:39:05;;;;;;;3.77;2.30;;;2.10;99.90;;;;;;5021480;28;20915;-60
2024/01/19 12:41:33;;;;;;;6.23;2.33;;;2.20;99.90;;;;;;5021334;28;20491;-61
2024/01/19 12:44:03;;;;;;;3.27;2.10;;;2.20;99.90;;;;;;5016298;28;20499;-62
2024/01/19 12:46:31;;;;;;;3.70;2.33;;;2.20;99.90;;;;;;5021463;28;20959;-61
2024/01/19 12:49:02;;;;;;;2.60;1.80;;;2.20;99.90;;;;;;5017546;28;21050;-61
2024/01/19 12:51:31;;;;;;;5.00;1.80;;;2.30;99.90;;;;;;5013053;28;20491;-61
2024/01/19 12:53:59;;;;;;;1.80;1.30;;;2.20;99.90;;;;;;5018624;28;20539;-61
2024/01/19 12:56:28;;;;;;;2.60;1.80;;;2.20;99.90;;;;;;5020525;28;21096;-61
2024/01/19 12:59:09;;;;;;;3.20;1.90;;;2.20;99.90;;;;;;5016167;28;20479;-61
2024/01/19 13:01:39;;;;;;;4.80;2.20;;;2.10;99.90;;;;;;5011228;28;20670;-62
2024/01/19 13:04:08;;;;;;;1.73;1.63;;;2.10;99.90;;;;;;5015878;28;20959;-62
2024/01/19 13:06:40;;;;;;;5.67;1.90;;;2.00;99.90;;;;;;5015986;28;21062;-62
2024/01/19 13:09:09;;;;;;;1.90;1.57;;;2.00;99.90;;;;;;5016352;28;20881;-62